sensor_id;sensor_type;location;lat;lon;timestamp;temperature;humidity
12156;DHT22;6141;49.092;8.516;2023-07-31T00:01:04;19.40;35.10
12156;DHT22;6141;49.092;8.516;2023-07-31T00:03:32;19.50;34.40
12156;DHT22;6141;49.092;8.516;2023-07-31T00:06:01;19.40;35.10
12156;DHT22;6141;49.092;8.516;2023-07-31T00:08:30;19.40;34.40
12156;DHT22;6141;49.092;8.516;2023-07-31T00:10:58;19.50;33.00
12156;DHT22;6141;49.092;8.516;2023-07-31T00:13:26;19.50;33.50
12156;DHT22;6141;49.092;8.516;2023-07-31T00:15:54;19.40;33.30
12156;DHT22;6141;49.092;8.516;2023-07-31T00:18:22;19.50;33.10
12156;DHT22;6141;49.092;8.516;2023-07-31T00:20:50;19.50;32.90
12156;DHT22;6141;49.092;8.516;2023-07-31T00:23:18;19.20;34.20
12156;DHT22;6141;49.092;8.516;2023-07-31T00:25:48;19.00;35.00
12156;DHT22;6141;49.092;8.516;2023-07-31T00:28:16;19.00;34.60
12156;DHT22;6141;49.092;8.516;2023-07-31T00:30:44;19.10;34.70
12156;DHT22;6141;49.092;8.516;2023-07-31T00:33:12;19.20;33.30
12156;DHT22;6141;49.092;8.516;2023-07-31T00:35:40;19.00;33.70
12156;DHT22;6141;49.092;8.516;2023-07-31T00:38:08;19.10;34.00
12156;DHT22;6141;49.092;8.516;2023-07-31T00:40:36;19.30;34.20
12156;DHT22;6141;49.092;8.516;2023-07-31T00:43:06;19.40;33.80
12156;DHT22;6141;49.092;8.516;2023-07-31T00:45:34;19.50;33.60
12156;DHT22;6141;49.092;8.516;2023-07-31T00:48:03;19.40;33.40
12156;DHT22;6141;49.092;8.516;2023-07-31T00:50:33;19.20;34.10
12156;DHT22;6141;49.092;8.516;2023-07-31T00:53:02;18.90;35.40
12156;DHT22;6141;49.092;8.516;2023-07-31T00:55:32;18.80;36.30
12156;DHT22;6141;49.092;8.516;2023-07-31T00:58:01;18.50;36.70
12156;DHT22;6141;49.092;8.516;2023-07-31T01:00:30;18.50;37.70
12156;DHT22;6141;49.092;8.516;2023-07-31T01:02:58;18.30;37.00
12156;DHT22;6141;49.092;8.516;2023-07-31T01:05:32;18.50;37.70
12156;DHT22;6141;49.092;8.516;2023-07-31T01:08:05;18.50;36.60
12156;DHT22;6141;49.092;8.516;2023-07-31T01:10:41;18.40;37.90
12156;DHT22;6141;49.092;8.516;2023-07-31T01:13:13;18.50;36.60
12156;DHT22;6141;49.092;8.516;2023-07-31T01:15:43;18.60;35.60
12156;DHT22;6141;49.092;8.516;2023-07-31T01:18:12;18.70;35.40
12156;DHT22;6141;49.092;8.516;2023-07-31T01:20:41;18.70;35.70
12156;DHT22;6141;49.092;8.516;2023-07-31T01:23:45;18.50;34.80
12156;DHT22;6141;49.092;8.516;2023-07-31T01:26:22;18.30;35.30
12156;DHT22;6141;49.092;8.516;2023-07-31T01:28:56;18.30;35.60
12156;DHT22;6141;49.092;8.516;2023-07-31T01:31:29;18.20;36.10
12156;DHT22;6141;49.092;8.516;2023-07-31T01:34:00;18.20;35.90
12156;DHT22;6141;49.092;8.516;2023-07-31T01:36:30;18.20;35.50
12156;DHT22;6141;49.092;8.516;2023-07-31T01:38:59;18.20;35.70
12156;DHT22;6141;49.092;8.516;2023-07-31T01:41:29;18.10;35.10
12156;DHT22;6141;49.092;8.516;2023-07-31T01:43:57;18.20;35.90
12156;DHT22;6141;49.092;8.516;2023-07-31T01:46:25;18.40;35.10
12156;DHT22;6141;49.092;8.516;2023-07-31T01:48:53;18.50;34.20
12156;DHT22;6141;49.092;8.516;2023-07-31T01:51:21;18.40;34.50
12156;DHT22;6141;49.092;8.516;2023-07-31T01:53:49;18.40;34.00
12156;DHT22;6141;49.092;8.516;2023-07-31T01:56:17;18.50;34.20
12156;DHT22;6141;49.092;8.516;2023-07-31T01:58:47;18.40;34.00
12156;DHT22;6141;49.092;8.516;2023-07-31T02:01:15;18.30;34.40
12156;DHT22;6141;49.092;8.516;2023-07-31T02:03:43;18.40;34.10
12156;DHT22;6141;49.092;8.516;2023-07-31T02:06:11;18.30;34.00
12156;DHT22;6141;49.092;8.516;2023-07-31T02:08:39;18.10;35.40
12156;DHT22;6141;49.092;8.516;2023-07-31T02:11:07;17.90;35.30
12156;DHT22;6141;49.092;8.516;2023-07-31T02:13:35;18.00;35.50
12156;DHT22;6141;49.092;8.516;2023-07-31T02:16:04;18.10;34.90
12156;DHT22;6141;49.092;8.516;2023-07-31T02:18:32;18.10;34.70
12156;DHT22;6141;49.092;8.516;2023-07-31T02:21:01;18.30;34.40
12156;DHT22;6141;49.092;8.516;2023-07-31T02:23:29;18.20;34.00
12156;DHT22;6141;49.092;8.516;2023-07-31T02:25:57;18.00;34.10
12156;DHT22;6141;49.092;8.516;2023-07-31T02:28:25;17.90;35.30
12156;DHT22;6141;49.092;8.516;2023-07-31T02:30:53;18.00;35.20
12156;DHT22;6141;49.092;8.516;2023-07-31T02:33:22;17.90;35.20
12156;DHT22;6141;49.092;8.516;2023-07-31T02:35:50;17.80;35.40
12156;DHT22;6141;49.092;8.516;2023-07-31T02:38:21;18.00;35.40
12156;DHT22;6141;49.092;8.516;2023-07-31T02:40:49;18.00;35.20
12156;DHT22;6141;49.092;8.516;2023-07-31T02:43:17;18.20;34.60
12156;DHT22;6141;49.092;8.516;2023-07-31T02:45:49;18.10;33.80
12156;DHT22;6141;49.092;8.516;2023-07-31T02:48:18;18.10;33.70
12156;DHT22;6141;49.092;8.516;2023-07-31T02:50:48;18.10;33.70
12156;DHT22;6141;49.092;8.516;2023-07-31T02:53:16;18.10;34.50
12156;DHT22;6141;49.092;8.516;2023-07-31T02:55:44;18.10;33.70
12156;DHT22;6141;49.092;8.516;2023-07-31T02:58:12;18.00;33.60
12156;DHT22;6141;49.092;8.516;2023-07-31T03:00:42;18.10;33.70
12156;DHT22;6141;49.092;8.516;2023-07-31T03:03:10;18.00;33.60
12156;DHT22;6141;49.092;8.516;2023-07-31T03:05:39;18.00;34.10
12156;DHT22;6141;49.092;8.516;2023-07-31T03:08:08;17.80;33.70
12156;DHT22;6141;49.092;8.516;2023-07-31T03:10:36;17.90;34.70
12156;DHT22;6141;49.092;8.516;2023-07-31T03:13:04;17.70;34.00
12156;DHT22;6141;49.092;8.516;2023-07-31T03:15:32;17.80;34.70
12156;DHT22;6141;49.092;8.516;2023-07-31T03:18:00;17.90;34.40
12156;DHT22;6141;49.092;8.516;2023-07-31T03:20:28;18.00;33.70
12156;DHT22;6141;49.092;8.516;2023-07-31T03:22:58;18.00;33.90
12156;DHT22;6141;49.092;8.516;2023-07-31T03:25:27;17.80;34.10
12156;DHT22;6141;49.092;8.516;2023-07-31T03:27:55;17.70;34.70
12156;DHT22;6141;49.092;8.516;2023-07-31T03:30:23;17.80;34.60
12156;DHT22;6141;49.092;8.516;2023-07-31T03:32:51;17.80;34.40
12156;DHT22;6141;49.092;8.516;2023-07-31T03:35:19;17.80;34.10
12156;DHT22;6141;49.092;8.516;2023-07-31T03:37:47;17.90;33.60
12156;DHT22;6141;49.092;8.516;2023-07-31T03:40:15;17.80;34.00
12156;DHT22;6141;49.092;8.516;2023-07-31T03:42:45;17.60;33.60
12156;DHT22;6141;49.092;8.516;2023-07-31T03:45:13;17.80;33.50
12156;DHT22;6141;49.092;8.516;2023-07-31T03:47:41;17.70;33.30
12156;DHT22;6141;49.092;8.516;2023-07-31T03:50:09;17.80;34.80
12156;DHT22;6141;49.092;8.516;2023-07-31T03:52:37;17.70;34.10
12156;DHT22;6141;49.092;8.516;2023-07-31T03:55:05;17.70;34.10
12156;DHT22;6141;49.092;8.516;2023-07-31T03:57:33;17.80;33.50
12156;DHT22;6141;49.092;8.516;2023-07-31T04:00:03;17.90;34.30
12156;DHT22;6141;49.092;8.516;2023-07-31T04:02:38;18.00;33.70
12156;DHT22;6141;49.092;8.516;2023-07-31T04:05:06;18.00;33.70
12156;DHT22;6141;49.092;8.516;2023-07-31T04:07:34;18.10;33.70
12156;DHT22;6141;49.092;8.516;2023-07-31T04:10:03;18.00;33.60
12156;DHT22;6141;49.092;8.516;2023-07-31T04:12:32;18.00;33.60
12156;DHT22;6141;49.092;8.516;2023-07-31T04:15:00;17.90;33.40
12156;DHT22;6141;49.092;8.516;2023-07-31T04:17:29;17.90;33.60
12156;DHT22;6141;49.092;8.516;2023-07-31T04:19:57;17.90;34.00
12156;DHT22;6141;49.092;8.516;2023-07-31T04:22:25;17.90;33.80
12156;DHT22;6141;49.092;8.516;2023-07-31T04:24:53;17.90;33.50
12156;DHT22;6141;49.092;8.516;2023-07-31T04:27:21;17.90;34.20
12156;DHT22;6141;49.092;8.516;2023-07-31T04:29:49;18.00;33.70
12156;DHT22;6141;49.092;8.516;2023-07-31T04:32:17;18.00;33.90
12156;DHT22;6141;49.092;8.516;2023-07-31T04:34:48;18.00;34.30
12156;DHT22;6141;49.092;8.516;2023-07-31T04:37:16;17.90;34.10
12156;DHT22;6141;49.092;8.516;2023-07-31T04:39:44;17.90;34.60
12156;DHT22;6141;49.092;8.516;2023-07-31T04:42:12;17.80;34.30
12156;DHT22;6141;49.092;8.516;2023-07-31T04:44:40;17.80;35.30
12156;DHT22;6141;49.092;8.516;2023-07-31T04:47:08;17.70;35.40
12156;DHT22;6141;49.092;8.516;2023-07-31T04:49:36;17.70;35.10
12156;DHT22;6141;49.092;8.516;2023-07-31T04:52:06;17.80;35.80
12156;DHT22;6141;49.092;8.516;2023-07-31T04:54:34;17.80;35.50
12156;DHT22;6141;49.092;8.516;2023-07-31T04:57:02;17.90;35.20
12156;DHT22;6141;49.092;8.516;2023-07-31T04:59:30;18.00;35.40
12156;DHT22;6141;49.092;8.516;2023-07-31T05:01:58;18.00;34.90
12156;DHT22;6141;49.092;8.516;2023-07-31T05:04:26;18.00;34.90
12156;DHT22;6141;49.092;8.516;2023-07-31T05:06:54;17.90;35.40
12156;DHT22;6141;49.092;8.516;2023-07-31T05:09:24;17.90;36.80
12156;DHT22;6141;49.092;8.516;2023-07-31T05:11:52;17.90;35.40
12156;DHT22;6141;49.092;8.516;2023-07-31T05:14:20;17.90;35.60
12156;DHT22;6141;49.092;8.516;2023-07-31T05:16:48;17.90;35.30
12156;DHT22;6141;49.092;8.516;2023-07-31T05:19:16;17.80;35.80
12156;DHT22;6141;49.092;8.516;2023-07-31T05:21:44;17.90;35.60
12156;DHT22;6141;49.092;8.516;2023-07-31T05:24:12;17.80;36.00
12156;DHT22;6141;49.092;8.516;2023-07-31T05:26:41;18.00;36.00
12156;DHT22;6141;49.092;8.516;2023-07-31T05:29:09;18.20;35.60
12156;DHT22;6141;49.092;8.516;2023-07-31T05:31:38;18.30;35.00
12156;DHT22;6141;49.092;8.516;2023-07-31T05:34:06;18.20;34.30
12156;DHT22;6141;49.092;8.516;2023-07-31T05:36:34;18.20;34.90
12156;DHT22;6141;49.092;8.516;2023-07-31T05:39:03;18.20;35.60
12156;DHT22;6141;49.092;8.516;2023-07-31T05:41:35;18.30;35.30
12156;DHT22;6141;49.092;8.516;2023-07-31T05:44:04;18.30;36.30
12156;DHT22;6141;49.092;8.516;2023-07-31T05:46:33;18.30;35.10
12156;DHT22;6141;49.092;8.516;2023-07-31T05:49:01;18.40;35.30
12156;DHT22;6141;49.092;8.516;2023-07-31T05:51:29;18.50;34.20
12156;DHT22;6141;49.092;8.516;2023-07-31T05:53:57;18.50;34.20
12156;DHT22;6141;49.092;8.516;2023-07-31T05:56:25;18.50;35.00
12156;DHT22;6141;49.092;8.516;2023-07-31T05:58:53;18.50;34.20
12156;DHT22;6141;49.092;8.516;2023-07-31T06:01:23;18.50;34.60
12156;DHT22;6141;49.092;8.516;2023-07-31T06:03:51;18.50;34.30
12156;DHT22;6141;49.092;8.516;2023-07-31T06:06:19;18.40;34.50
12156;DHT22;6141;49.092;8.516;2023-07-31T06:08:47;18.50;34.70
12156;DHT22;6141;49.092;8.516;2023-07-31T06:11:16;18.60;35.20
12156;DHT22;6141;49.092;8.516;2023-07-31T06:13:44;18.60;34.20
12156;DHT22;6141;49.092;8.516;2023-07-31T06:16:15;18.60;34.20
12156;DHT22;6141;49.092;8.516;2023-07-31T06:18:45;18.60;34.20
12156;DHT22;6141;49.092;8.516;2023-07-31T06:21:13;18.70;34.40
12156;DHT22;6141;49.092;8.516;2023-07-31T06:23:41;18.80;34.40
12156;DHT22;6141;49.092;8.516;2023-07-31T06:26:09;18.80;33.70
12156;DHT22;6141;49.092;8.516;2023-07-31T06:28:37;18.70;34.40
12156;DHT22;6141;49.092;8.516;2023-07-31T06:31:05;18.80;34.40
12156;DHT22;6141;49.092;8.516;2023-07-31T06:33:33;19.00;34.60
12156;DHT22;6141;49.092;8.516;2023-07-31T06:36:03;19.20;34.80
12156;DHT22;6141;49.092;8.516;2023-07-31T06:38:31;19.20;33.20
12156;DHT22;6141;49.092;8.516;2023-07-31T06:40:59;19.20;34.20
12156;DHT22;6141;49.092;8.516;2023-07-31T06:43:27;19.30;35.00
12156;DHT22;6141;49.092;8.516;2023-07-31T06:45:55;19.40;33.10
12156;DHT22;6141;49.092;8.516;2023-07-31T06:48:24;19.30;32.90
12156;DHT22;6141;49.092;8.516;2023-07-31T06:50:52;19.40;32.80
12156;DHT22;6141;49.092;8.516;2023-07-31T06:53:21;19.40;33.20
12156;DHT22;6141;49.092;8.516;2023-07-31T06:55:49;19.40;32.70
12156;DHT22;6141;49.092;8.516;2023-07-31T06:58:18;19.40;31.10
12156;DHT22;6141;49.092;8.516;2023-07-31T07:00:46;19.40;31.50
12156;DHT22;6141;49.092;8.516;2023-07-31T07:03:17;19.40;31.50
12156;DHT22;6141;49.092;8.516;2023-07-31T07:05:45;19.40;33.00
12156;DHT22;6141;49.092;8.516;2023-07-31T07:08:14;19.40;31.60
12156;DHT22;6141;49.092;8.516;2023-07-31T07:10:43;19.50;31.90
12156;DHT22;6141;49.092;8.516;2023-07-31T07:13:11;19.50;32.10
12156;DHT22;6141;49.092;8.516;2023-07-31T07:15:40;19.40;31.80
12156;DHT22;6141;49.092;8.516;2023-07-31T07:18:08;19.50;31.70
12156;DHT22;6141;49.092;8.516;2023-07-31T07:20:37;19.40;31.20
12156;DHT22;6141;49.092;8.516;2023-07-31T07:23:05;19.40;30.70
12156;DHT22;6141;49.092;8.516;2023-07-31T07:25:37;19.50;32.30
12156;DHT22;6141;49.092;8.516;2023-07-31T07:28:07;19.40;30.90
12156;DHT22;6141;49.092;8.516;2023-07-31T07:30:35;19.50;32.70
12156;DHT22;6141;49.092;8.516;2023-07-31T07:33:03;19.40;31.10
12156;DHT22;6141;49.092;8.516;2023-07-31T07:35:33;19.60;31.60
12156;DHT22;6141;49.092;8.516;2023-07-31T07:38:01;19.60;31.60
12156;DHT22;6141;49.092;8.516;2023-07-31T07:40:30;19.60;31.30
12156;DHT22;6141;49.092;8.516;2023-07-31T07:42:58;19.60;31.40
12156;DHT22;6141;49.092;8.516;2023-07-31T07:45:28;19.60;30.50
12156;DHT22;6141;49.092;8.516;2023-07-31T07:47:56;19.60;31.10
12156;DHT22;6141;49.092;8.516;2023-07-31T07:50:24;19.60;30.00
12156;DHT22;6141;49.092;8.516;2023-07-31T07:52:53;19.70;31.80
12156;DHT22;6141;49.092;8.516;2023-07-31T07:55:21;19.60;30.60
12156;DHT22;6141;49.092;8.516;2023-07-31T07:57:49;19.60;30.80
12156;DHT22;6141;49.092;8.516;2023-07-31T08:00:17;19.70;30.80
12156;DHT22;6141;49.092;8.516;2023-07-31T08:02:46;19.80;31.00
12156;DHT22;6141;49.092;8.516;2023-07-31T08:05:15;19.90;30.40
12156;DHT22;6141;49.092;8.516;2023-07-31T08:07:44;20.00;30.00
12156;DHT22;6141;49.092;8.516;2023-07-31T08:10:12;20.00;30.20
12156;DHT22;6141;49.092;8.516;2023-07-31T08:12:40;20.00;29.40
12156;DHT22;6141;49.092;8.516;2023-07-31T08:15:08;20.00;29.70
12156;DHT22;6141;49.092;8.516;2023-07-31T08:17:37;19.90;30.00
12156;DHT22;6141;49.092;8.516;2023-07-31T08:20:07;19.90;29.30
12156;DHT22;6141;49.092;8.516;2023-07-31T08:22:36;19.80;29.20
12156;DHT22;6141;49.092;8.516;2023-07-31T08:25:05;19.80;29.20
12156;DHT22;6141;49.092;8.516;2023-07-31T08:27:33;19.90;30.80
12156;DHT22;6141;49.092;8.516;2023-07-31T08:30:01;20.00;29.70
12156;DHT22;6141;49.092;8.516;2023-07-31T08:32:29;20.00;29.40
12156;DHT22;6141;49.092;8.516;2023-07-31T08:34:57;20.20;29.70
12156;DHT22;6141;49.092;8.516;2023-07-31T08:37:27;20.10;29.40
12156;DHT22;6141;49.092;8.516;2023-07-31T08:39:55;20.20;30.90
12156;DHT22;6141;49.092;8.516;2023-07-31T08:42:23;20.30;29.80
12156;DHT22;6141;49.092;8.516;2023-07-31T08:44:52;20.40;30.30
12156;DHT22;6141;49.092;8.516;2023-07-31T08:47:22;20.50;29.10
12156;DHT22;6141;49.092;8.516;2023-07-31T08:49:51;20.50;29.30
12156;DHT22;6141;49.092;8.516;2023-07-31T08:52:20;20.50;29.80
12156;DHT22;6141;49.092;8.516;2023-07-31T08:54:49;20.80;30.00
12156;DHT22;6141;49.092;8.516;2023-07-31T08:57:17;20.90;28.80
12156;DHT22;6141;49.092;8.516;2023-07-31T08:59:46;21.10;29.90
12156;DHT22;6141;49.092;8.516;2023-07-31T09:02:15;21.10;27.50
12156;DHT22;6141;49.092;8.516;2023-07-31T09:04:45;21.20;27.80
12156;DHT22;6141;49.092;8.516;2023-07-31T09:07:14;21.30;27.90
12156;DHT22;6141;49.092;8.516;2023-07-31T09:09:43;21.50;28.00
12156;DHT22;6141;49.092;8.516;2023-07-31T09:12:13;21.70;28.20
12156;DHT22;6141;49.092;8.516;2023-07-31T09:14:42;21.70;27.20
12156;DHT22;6141;49.092;8.516;2023-07-31T09:17:12;21.70;26.10
12156;DHT22;6141;49.092;8.516;2023-07-31T09:19:40;21.70;26.50
12156;DHT22;6141;49.092;8.516;2023-07-31T09:22:08;21.90;25.70
12156;DHT22;6141;49.092;8.516;2023-07-31T09:24:37;21.80;25.60
12156;DHT22;6141;49.092;8.516;2023-07-31T09:27:06;21.80;25.10
12156;DHT22;6141;49.092;8.516;2023-07-31T09:29:35;21.70;25.90
12156;DHT22;6141;49.092;8.516;2023-07-31T09:32:04;21.90;25.70
12156;DHT22;6141;49.092;8.516;2023-07-31T09:34:37;21.90;24.70
12156;DHT22;6141;49.092;8.516;2023-07-31T09:37:06;22.20;25.00
12156;DHT22;6141;49.092;8.516;2023-07-31T09:39:45;22.30;25.10
12156;DHT22;6141;49.092;8.516;2023-07-31T09:42:13;22.40;25.60
12156;DHT22;6141;49.092;8.516;2023-07-31T09:44:43;22.70;24.60
12156;DHT22;6141;49.092;8.516;2023-07-31T09:47:21;22.20;24.60
12156;DHT22;6141;49.092;8.516;2023-07-31T09:49:52;22.30;25.10
12156;DHT22;6141;49.092;8.516;2023-07-31T09:52:20;22.30;24.70
12156;DHT22;6141;49.092;8.516;2023-07-31T09:54:49;22.30;24.50
12156;DHT22;6141;49.092;8.516;2023-07-31T09:57:17;22.20;25.00
12156;DHT22;6141;49.092;8.516;2023-07-31T09:59:49;22.30;25.80
12156;DHT22;6141;49.092;8.516;2023-07-31T10:02:22;22.40;25.50
12156;DHT22;6141;49.092;8.516;2023-07-31T10:04:51;22.40;25.00
12156;DHT22;6141;49.092;8.516;2023-07-31T10:07:20;22.30;25.50
12156;DHT22;6141;49.092;8.516;2023-07-31T10:09:51;22.40;23.60
12156;DHT22;6141;49.092;8.516;2023-07-31T10:12:22;22.50;24.90
12156;DHT22;6141;49.092;8.516;2023-07-31T10:14:55;22.70;22.90
12156;DHT22;6141;49.092;8.516;2023-07-31T10:17:24;22.60;23.30
12156;DHT22;6141;49.092;8.516;2023-07-31T10:19:53;22.60;23.10
12156;DHT22;6141;49.092;8.516;2023-07-31T10:22:21;22.50;25.00
12156;DHT22;6141;49.092;8.516;2023-07-31T10:24:50;22.40;25.10
12156;DHT22;6141;49.092;8.516;2023-07-31T10:27:20;22.60;24.80
12156;DHT22;6141;49.092;8.516;2023-07-31T10:29:48;22.70;24.70
12156;DHT22;6141;49.092;8.516;2023-07-31T10:32:19;22.50;23.60
12156;DHT22;6141;49.092;8.516;2023-07-31T10:34:49;22.60;23.80
12156;DHT22;6141;49.092;8.516;2023-07-31T10:37:22;22.50;24.20
12156;DHT22;6141;49.092;8.516;2023-07-31T10:39:58;22.50;23.50
12156;DHT22;6141;49.092;8.516;2023-07-31T10:42:31;22.30;24.30
12156;DHT22;6141;49.092;8.516;2023-07-31T10:45:03;22.20;24.30
12156;DHT22;6141;49.092;8.516;2023-07-31T10:47:36;22.20;24.70
12156;DHT22;6141;49.092;8.516;2023-07-31T10:50:17;22.40;24.30
12156;DHT22;6141;49.092;8.516;2023-07-31T10:52:47;22.70;25.80
12156;DHT22;6141;49.092;8.516;2023-07-31T10:55:30;22.60;23.80
12156;DHT22;6141;49.092;8.516;2023-07-31T10:58:05;22.70;23.70
12156;DHT22;6141;49.092;8.516;2023-07-31T11:00:34;22.70;24.20
12156;DHT22;6141;49.092;8.516;2023-07-31T11:03:06;22.70;24.10
12156;DHT22;6141;49.092;8.516;2023-07-31T11:05:52;22.70;23.40
12156;DHT22;6141;49.092;8.516;2023-07-31T11:08:23;22.50;23.40
12156;DHT22;6141;49.092;8.516;2023-07-31T11:11:04;22.60;24.20
12156;DHT22;6141;49.092;8.516;2023-07-31T11:13:39;22.70;24.50
12156;DHT22;6141;49.092;8.516;2023-07-31T11:16:07;22.90;25.30
12156;DHT22;6141;49.092;8.516;2023-07-31T11:18:38;23.00;24.10
12156;DHT22;6141;49.092;8.516;2023-07-31T11:21:06;23.00;23.80
12156;DHT22;6141;49.092;8.516;2023-07-31T11:23:37;23.20;24.50
12156;DHT22;6141;49.092;8.516;2023-07-31T11:26:06;23.20;23.90
12156;DHT22;6141;49.092;8.516;2023-07-31T11:28:35;22.90;23.90
12156;DHT22;6141;49.092;8.516;2023-07-31T11:31:04;22.80;24.10
12156;DHT22;6141;49.092;8.516;2023-07-31T11:33:32;23.10;23.80
12156;DHT22;6141;49.092;8.516;2023-07-31T11:36:01;23.20;23.50
12156;DHT22;6141;49.092;8.516;2023-07-31T11:38:32;23.00;23.00
12156;DHT22;6141;49.092;8.516;2023-07-31T11:41:02;22.80;23.60
12156;DHT22;6141;49.092;8.516;2023-07-31T11:43:31;22.80;24.40
12156;DHT22;6141;49.092;8.516;2023-07-31T11:46:00;22.80;24.10
12156;DHT22;6141;49.092;8.516;2023-07-31T11:48:31;22.80;24.00
12156;DHT22;6141;49.092;8.516;2023-07-31T11:51:03;22.90;24.30
12156;DHT22;6141;49.092;8.516;2023-07-31T11:53:36;22.70;24.90
12156;DHT22;6141;49.092;8.516;2023-07-31T11:56:07;22.70;25.10
12156;DHT22;6141;49.092;8.516;2023-07-31T11:58:38;22.50;24.10
12156;DHT22;6141;49.092;8.516;2023-07-31T12:01:07;22.50;24.70
12156;DHT22;6141;49.092;8.516;2023-07-31T12:03:36;22.50;25.30
12156;DHT22;6141;49.092;8.516;2023-07-31T12:06:06;23.00;23.90
12156;DHT22;6141;49.092;8.516;2023-07-31T12:08:34;23.00;25.00
12156;DHT22;6141;49.092;8.516;2023-07-31T12:11:04;23.10;25.00
12156;DHT22;6141;49.092;8.516;2023-07-31T12:13:33;23.20;26.30
12156;DHT22;6141;49.092;8.516;2023-07-31T12:16:03;23.20;25.00
12156;DHT22;6141;49.092;8.516;2023-07-31T12:18:34;23.20;25.10
12156;DHT22;6141;49.092;8.516;2023-07-31T12:21:07;23.20;24.10
12156;DHT22;6141;49.092;8.516;2023-07-31T12:23:37;23.10;23.90
12156;DHT22;6141;49.092;8.516;2023-07-31T12:26:10;23.10;23.80
12156;DHT22;6141;49.092;8.516;2023-07-31T12:28:40;23.40;25.30
12156;DHT22;6141;49.092;8.516;2023-07-31T12:31:09;23.50;24.60
12156;DHT22;6141;49.092;8.516;2023-07-31T12:33:40;23.50;23.60
12156;DHT22;6141;49.092;8.516;2023-07-31T12:36:11;23.50;23.80
12156;DHT22;6141;49.092;8.516;2023-07-31T12:38:40;23.40;22.90
12156;DHT22;6141;49.092;8.516;2023-07-31T12:41:09;23.30;23.20
12156;DHT22;6141;49.092;8.516;2023-07-31T12:43:38;23.40;23.70
12156;DHT22;6141;49.092;8.516;2023-07-31T12:46:07;23.50;24.30
12156;DHT22;6141;49.092;8.516;2023-07-31T12:48:36;23.70;24.90
12156;DHT22;6141;49.092;8.516;2023-07-31T12:51:05;24.00;23.20
12156;DHT22;6141;49.092;8.516;2023-07-31T12:53:35;24.10;22.10
12156;DHT22;6141;49.092;8.516;2023-07-31T12:56:04;24.00;22.80
12156;DHT22;6141;49.092;8.516;2023-07-31T12:58:32;23.80;22.90
12156;DHT22;6141;49.092;8.516;2023-07-31T13:01:00;23.80;23.60
12156;DHT22;6141;49.092;8.516;2023-07-31T13:03:29;23.70;23.10
12156;DHT22;6141;49.092;8.516;2023-07-31T13:05:57;23.70;23.70
12156;DHT22;6141;49.092;8.516;2023-07-31T13:08:25;23.70;23.20
12156;DHT22;6141;49.092;8.516;2023-07-31T13:10:55;23.80;23.90
12156;DHT22;6141;49.092;8.516;2023-07-31T13:13:23;23.80;23.30
12156;DHT22;6141;49.092;8.516;2023-07-31T13:15:51;23.80;22.90
12156;DHT22;6141;49.092;8.516;2023-07-31T13:18:19;23.80;22.70
12156;DHT22;6141;49.092;8.516;2023-07-31T13:20:47;23.80;23.80
12156;DHT22;6141;49.092;8.516;2023-07-31T13:23:15;23.60;24.10
12156;DHT22;6141;49.092;8.516;2023-07-31T13:25:43;23.70;24.50
12156;DHT22;6141;49.092;8.516;2023-07-31T13:28:13;23.70;23.90
12156;DHT22;6141;49.092;8.516;2023-07-31T13:30:41;23.50;23.90
12156;DHT22;6141;49.092;8.516;2023-07-31T13:33:09;23.50;25.00
12156;DHT22;6141;49.092;8.516;2023-07-31T13:35:57;23.40;24.60
12156;DHT22;6141;49.092;8.516;2023-07-31T13:38:26;23.30;24.00
12156;DHT22;6141;49.092;8.516;2023-07-31T13:40:54;23.20;24.20
12156;DHT22;6141;49.092;8.516;2023-07-31T13:43:24;23.20;24.80
12156;DHT22;6141;49.092;8.516;2023-07-31T13:45:52;23.20;24.60
12156;DHT22;6141;49.092;8.516;2023-07-31T13:48:21;23.30;24.00
12156;DHT22;6141;49.092;8.516;2023-07-31T13:50:49;23.30;24.80
12156;DHT22;6141;49.092;8.516;2023-07-31T13:53:17;23.30;24.60
12156;DHT22;6141;49.092;8.516;2023-07-31T13:55:46;23.30;25.00
12156;DHT22;6141;49.092;8.516;2023-07-31T13:58:16;23.40;25.20
12156;DHT22;6141;49.092;8.516;2023-07-31T14:00:45;23.30;24.90
12156;DHT22;6141;49.092;8.516;2023-07-31T14:03:13;23.30;25.10
12156;DHT22;6141;49.092;8.516;2023-07-31T14:05:42;23.20;25.30
12156;DHT22;6141;49.092;8.516;2023-07-31T14:08:10;23.30;24.80
12156;DHT22;6141;49.092;8.516;2023-07-31T14:10:44;23.30;24.70
12156;DHT22;6141;49.092;8.516;2023-07-31T14:13:12;23.20;25.10
12156;DHT22;6141;49.092;8.516;2023-07-31T14:15:42;23.10;24.80
12156;DHT22;6141;49.092;8.516;2023-07-31T14:18:11;22.90;24.50
12156;DHT22;6141;49.092;8.516;2023-07-31T14:20:40;22.80;25.00
12156;DHT22;6141;49.092;8.516;2023-07-31T14:23:08;22.90;25.30
12156;DHT22;6141;49.092;8.516;2023-07-31T14:25:36;22.90;25.00
12156;DHT22;6141;49.092;8.516;2023-07-31T14:28:04;22.90;24.90
12156;DHT22;6141;49.092;8.516;2023-07-31T14:30:32;23.00;24.60
12156;DHT22;6141;49.092;8.516;2023-07-31T14:33:00;23.00;24.70
12156;DHT22;6141;49.092;8.516;2023-07-31T14:35:30;23.00;25.20
12156;DHT22;6141;49.092;8.516;2023-07-31T14:37:58;23.00;25.40
12156;DHT22;6141;49.092;8.516;2023-07-31T14:40:26;23.00;25.20
12156;DHT22;6141;49.092;8.516;2023-07-31T14:42:54;23.00;25.30
12156;DHT22;6141;49.092;8.516;2023-07-31T14:45:23;23.00;25.80
12156;DHT22;6141;49.092;8.516;2023-07-31T14:47:51;23.00;25.90
12156;DHT22;6141;49.092;8.516;2023-07-31T14:50:20;23.00;25.40
12156;DHT22;6141;49.092;8.516;2023-07-31T14:52:49;23.20;26.40
12156;DHT22;6141;49.092;8.516;2023-07-31T14:55:18;23.40;26.20
12156;DHT22;6141;49.092;8.516;2023-07-31T14:57:46;23.40;25.10
12156;DHT22;6141;49.092;8.516;2023-07-31T15:00:15;23.40;25.30
12156;DHT22;6141;49.092;8.516;2023-07-31T15:02:43;23.50;25.40
12156;DHT22;6141;49.092;8.516;2023-07-31T15:05:11;23.70;25.80
12156;DHT22;6141;49.092;8.516;2023-07-31T15:07:39;23.70;25.40
12156;DHT22;6141;49.092;8.516;2023-07-31T15:10:09;23.70;25.30
12156;DHT22;6141;49.092;8.516;2023-07-31T15:12:39;23.40;24.20
12156;DHT22;6141;49.092;8.516;2023-07-31T15:15:08;23.50;25.50
12156;DHT22;6141;49.092;8.516;2023-07-31T15:17:36;23.50;25.40
12156;DHT22;6141;49.092;8.516;2023-07-31T15:20:05;23.50;25.40
12156;DHT22;6141;49.092;8.516;2023-07-31T15:22:33;23.60;24.90
12156;DHT22;6141;49.092;8.516;2023-07-31T15:25:02;23.70;25.30
12156;DHT22;6141;49.092;8.516;2023-07-31T15:27:31;23.70;25.20
12156;DHT22;6141;49.092;8.516;2023-07-31T15:29:59;23.80;25.20
12156;DHT22;6141;49.092;8.516;2023-07-31T15:32:27;23.90;25.30
12156;DHT22;6141;49.092;8.516;2023-07-31T15:34:56;24.10;25.90
12156;DHT22;6141;49.092;8.516;2023-07-31T15:37:24;24.20;24.90
12156;DHT22;6141;49.092;8.516;2023-07-31T15:39:52;24.20;24.10
12156;DHT22;6141;49.092;8.516;2023-07-31T15:42:20;23.80;23.70
12156;DHT22;6141;49.092;8.516;2023-07-31T15:44:49;23.70;24.90
12156;DHT22;6141;49.092;8.516;2023-07-31T15:47:17;23.70;24.90
12156;DHT22;6141;49.092;8.516;2023-07-31T15:49:46;23.80;25.00
12156;DHT22;6141;49.092;8.516;2023-07-31T15:52:16;23.70;24.40
12156;DHT22;6141;49.092;8.516;2023-07-31T15:54:44;23.60;25.80
12156;DHT22;6141;49.092;8.516;2023-07-31T15:57:12;23.60;25.40